Time;durP1;ratioP1;P1;durP2;ratioP2;P2;SDS_P1;SDS_P2;PMS_P1;PMS_P2;Temp;Humidity;BMP_temperature;BMP_pressure;BME280_temperature;BME280_humidity;BME280_pressure;Samples;Min_cycle;Max_cycle;Signal;HPM_P1;HPM_P2
2022/04/09 00:01:17;;;;;;;10.00;1.38;;;;;;;;;;4981666;28;20038;-57
2022/04/09 00:03:43;;;;;;;5.35;1.02;;;;;;;;;;4980458;28;20045;-58
2022/04/09 00:06:10;;;;;;;3.63;1.08;;;;;;;;;;4979461;28;20126;-57
2022/04/09 00:08:37;;;;;;;4.30;0.90;;;;;;;;;;4996219;28;20833;-58
2022/04/09 00:11:03;;;;;;;3.17;1.00;;;;;;;;;;4983706;28;20054;-58
2022/04/09 00:13:30;;;;;;;3.47;0.90;;;;;;;;;;4981210;28;20038;-57
2022/04/09 00:15:57;;;;;;;4.75;0.88;;;;;;;;;;4982845;28;20045;-57
2022/04/09 00:18:23;;;;;;;3.33;0.80;;;;;;;;;;4982357;28;20052;-62
2022/04/09 00:20:50;;;;;;;8.10;1.27;;;;;;;;;;4981654;28;20045;-57
2022/04/09 00:23:18;;;;;;;2.60;0.75;;;;;;;;;;4982476;28;20042;-56
2022/04/09 00:25:48;;;;;;;8.18;1.08;;;;;;;;;;4981819;28;20050;-57
2022/04/09 00:28:15;;;;;;;3.35;0.80;;;;;;;;;;4981279;28;20053;-57
2022/04/09 00:30:42;;;;;;;4.22;0.77;;;;;;;;;;4979524;28;20689;-56
2022/04/09 00:33:11;;;;;;;4.65;0.93;;;;;;;;;;4981147;28;20061;-55
2022/04/09 00:35:37;;;;;;;3.40;0.88;;;;;;;;;;4980768;28;20545;-60
2022/04/09 00:38:04;;;;;;;5.10;0.90;;;;;;;;;;4982387;28;20653;-60
2022/04/09 00:40:31;;;;;;;27.83;3.30;;;;;;;;;;4983752;28;20042;-57
2022/04/09 00:42:57;;;;;;;26.55;2.50;;;;;;;;;;4980696;28;20601;-57
2022/04/09 00:45:24;;;;;;;26.92;2.90;;;;;;;;;;4980974;28;20419;-57
2022/04/09 00:47:51;;;;;;;33.97;2.58;;;;;;;;;;4981923;28;20040;-57
2022/04/09 00:50:18;;;;;;;23.25;2.45;;;;;;;;;;4981654;28;20042;-57
2022/04/09 00:52:49;;;;;;;11.52;1.48;;;;;;;;;;4980127;28;20057;-58
2022/04/09 00:55:18;;;;;;;12.35;1.50;;;;;;;;;;4981351;28;20356;-56
2022/04/09 00:57:47;;;;;;;16.77;1.70;;;;;;;;;;4981904;28;20054;-57
2022/04/09 01:00:14;;;;;;;13.15;1.73;;;;;;;;;;4982150;28;20039;-57
2022/04/09 01:02:42;;;;;;;6.05;1.02;;;;;;;;;;4981232;28;20328;-58
2022/04/09 01:05:09;;;;;;;5.07;1.02;;;;;;;;;;4981861;28;20038;-56
2022/04/09 01:07:36;;;;;;;5.95;1.00;;;;;;;;;;4982439;28;20038;-57
2022/04/09 01:10:03;;;;;;;11.95;1.63;;;;;;;;;;4982551;28;20034;-57
2022/04/09 01:12:30;;;;;;;10.85;1.50;;;;;;;;;;4981416;28;20061;-56
2022/04/09 01:14:57;;;;;;;6.85;1.00;;;;;;;;;;4981959;28;20120;-56
2022/04/09 01:17:23;;;;;;;9.98;1.20;;;;;;;;;;4980260;28;20357;-54
2022/04/09 01:19:50;;;;;;;7.25;1.10;;;;;;;;;;4982966;28;20148;-55
2022/04/09 01:22:17;;;;;;;2.60;0.95;;;;;;;;;;4993209;28;20038;-55
2022/04/09 01:24:43;;;;;;;8.93;1.20;;;;;;;;;;4981616;28;20065;-54
2022/04/09 01:27:10;;;;;;;5.50;0.70;;;;;;;;;;4982959;28;21011;-57
2022/04/09 01:29:37;;;;;;;10.60;1.00;;;;;;;;;;4982115;28;20051;-56
2022/04/09 01:32:04;;;;;;;20.90;1.27;;;;;;;;;;4981550;28;20082;-57
2022/04/09 01:34:31;;;;;;;4.85;1.17;;;;;;;;;;4984303;28;20041;-56
2022/04/09 01:36:57;;;;;;;10.25;1.33;;;;;;;;;;4986643;28;20056;-57
2022/04/09 01:39:24;;;;;;;8.50;1.17;;;;;;;;;;4984542;28;20066;-57
2022/04/09 01:41:51;;;;;;;10.98;0.98;;;;;;;;;;4984477;28;20044;-57
2022/04/09 01:44:17;;;;;;;33.85;3.03;;;;;;;;;;4996707;28;20058;-56
2022/04/09 01:46:44;;;;;;;9.35;1.13;;;;;;;;;;4984598;28;20064;-57
2022/04/09 01:49:12;;;;;;;2.10;0.40;;;;;;;;;;4986481;28;20057;-55
2022/04/09 01:51:39;;;;;;;7.00;0.85;;;;;;;;;;4998690;28;20129;-56
2022/04/09 01:54:05;;;;;;;2.35;0.43;;;;;;;;;;4985060;28;20112;-52
2022/04/09 01:56:33;;;;;;;4.22;1.00;;;;;;;;;;4985410;28;20050;-56
2022/04/09 01:58:59;;;;;;;9.52;1.10;;;;;;;;;;4986198;28;20078;-56
2022/04/09 02:01:27;;;;;;;7.63;0.70;;;;;;;;;;4995747;28;20053;-57
2022/04/09 02:03:53;;;;;;;6.75;0.98;;;;;;;;;;4984632;28;20041;-56
2022/04/09 02:06:20;;;;;;;2.38;0.68;;;;;;;;;;4985287;28;20049;-55
2022/04/09 02:08:47;;;;;;;5.03;0.80;;;;;;;;;;4986318;28;20125;-56
2022/04/09 02:11:14;;;;;;;9.70;0.60;;;;;;;;;;4983820;28;20832;-56
2022/04/09 02:13:41;;;;;;;1.23;0.50;;;;;;;;;;4985447;28;20136;-56
2022/04/09 02:16:07;;;;;;;3.78;0.60;;;;;;;;;;4985729;28;20042;-55
2022/04/09 02:18:34;;;;;;;8.23;1.02;;;;;;;;;;4986041;28;20052;-57
2022/04/09 02:21:01;;;;;;;4.28;0.80;;;;;;;;;;4982778;28;20920;-57
2022/04/09 02:23:27;;;;;;;2.58;0.70;;;;;;;;;;4995263;28;20046;-57
2022/04/09 02:25:54;;;;;;;1.38;0.50;;;;;;;;;;4983918;28;20090;-57
2022/04/09 02:28:21;;;;;;;5.40;0.70;;;;;;;;;;4984039;28;20038;-55
2022/04/09 02:30:47;;;;;;;2.50;0.90;;;;;;;;;;4983829;28;20050;-56
2022/04/09 02:33:14;;;;;;;3.70;0.60;;;;;;;;;;4985238;28;20120;-55
2022/04/09 02:35:41;;;;;;;1.75;0.65;;;;;;;;;;4983226;28;20519;-56
2022/04/09 02:38:09;;;;;;;1.73;0.50;;;;;;;;;;4984360;28;20125;-56
2022/04/09 02:40:36;;;;;;;1.30;0.52;;;;;;;;;;4983457;28;20122;-55
2022/04/09 02:43:02;;;;;;;1.92;0.60;;;;;;;;;;4984222;28;20046;-55
2022/04/09 02:45:29;;;;;;;3.83;0.60;;;;;;;;;;4984046;28;20038;-55
2022/04/09 02:47:56;;;;;;;9.85;1.30;;;;;;;;;;4985443;28;21906;-56
2022/04/09 02:50:23;;;;;;;2.15;0.60;;;;;;;;;;4984463;28;20041;-56
2022/04/09 02:52:49;;;;;;;1.95;1.15;;;;;;;;;;4983518;28;20054;-56
2022/04/09 02:55:17;;;;;;;1.58;0.60;;;;;;;;;;4984193;28;20677;-56
2022/04/09 02:57:46;;;;;;;3.47;0.50;;;;;;;;;;4984489;28;20611;-57
2022/04/09 03:00:13;;;;;;;2.70;0.60;;;;;;;;;;4983295;28;20491;-55
2022/04/09 03:02:41;;;;;;;1.60;0.60;;;;;;;;;;4980168;28;20046;-56
2022/04/09 03:05:08;;;;;;;3.08;0.60;;;;;;;;;;4985616;28;20077;-55
2022/04/09 03:07:35;;;;;;;3.47;0.77;;;;;;;;;;4983291;28;20173;-57
2022/04/09 03:10:02;;;;;;;3.70;0.70;;;;;;;;;;4984598;28;20042;-55
2022/04/09 03:12:29;;;;;;;1.92;0.60;;;;;;;;;;4981780;28;20049;-56
2022/04/09 03:14:56;;;;;;;2.20;0.70;;;;;;;;;;4982063;28;20042;-56
2022/04/09 03:17:22;;;;;;;2.00;0.60;;;;;;;;;;4994728;28;20106;-56
2022/04/09 03:19:49;;;;;;;3.30;0.70;;;;;;;;;;4984876;28;20053;-56
2022/04/09 03:22:16;;;;;;;3.03;0.55;;;;;;;;;;4982354;28;20150;-56
2022/04/09 03:24:43;;;;;;;2.88;0.70;;;;;;;;;;4981512;28;20038;-56
2022/04/09 03:27:09;;;;;;;2.20;0.82;;;;;;;;;;4985519;28;20038;-56
2022/04/09 03:29:36;;;;;;;2.55;0.65;;;;;;;;;;4984636;28;20085;-57
2022/04/09 03:32:03;;;;;;;1.73;0.60;;;;;;;;;;4983537;28;20126;-58
2022/04/09 03:34:30;;;;;;;4.78;0.88;;;;;;;;;;4983341;28;20046;-56
2022/04/09 03:36:56;;;;;;;2.63;0.75;;;;;;;;;;4981399;28;20495;-58
2022/04/09 03:39:23;;;;;;;2.72;0.73;;;;;;;;;;4983237;28;20045;-56
2022/04/09 03:41:50;;;;;;;3.63;0.93;;;;;;;;;;4982245;28;20511;-57
2022/04/09 03:44:16;;;;;;;7.03;0.80;;;;;;;;;;4983765;28;20105;-57
2022/04/09 03:46:43;;;;;;;3.05;0.63;;;;;;;;;;4982492;28;20046;-56
2022/04/09 03:49:10;;;;;;;2.03;0.68;;;;;;;;;;4982842;28;20038;-56
2022/04/09 03:51:37;;;;;;;3.38;0.75;;;;;;;;;;4980736;28;20069;-57
2022/04/09 03:54:04;;;;;;;3.15;0.60;;;;;;;;;;4982787;28;20057;-58
2022/04/09 03:56:30;;;;;;;2.30;0.60;;;;;;;;;;4981344;28;20121;-57
2022/04/09 03:58:57;;;;;;;3.17;0.70;;;;;;;;;;4982982;28;20066;-58
2022/04/09 04:01:24;;;;;;;4.22;0.73;;;;;;;;;;4981910;28;20053;-58
2022/04/09 04:03:52;;;;;;;3.20;0.80;;;;;;;;;;4982433;28;20042;-58
2022/04/09 04:06:19;;;;;;;1.77;0.60;;;;;;;;;;4984555;28;20038;-58
2022/04/09 04:08:45;;;;;;;2.78;0.70;;;;;;;;;;4982365;28;20050;-58
2022/04/09 04:11:12;;;;;;;1.48;0.55;;;;;;;;;;4981830;28;20049;-58
2022/04/09 04:13:39;;;;;;;2.83;0.52;;;;;;;;;;4981372;28;20035;-57
2022/04/09 04:16:06;;;;;;;1.63;0.50;;;;;;;;;;4983503;28;20066;-57
2022/04/09 04:18:33;;;;;;;3.95;0.60;;;;;;;;;;4980963;28;20122;-56
2022/04/09 04:20:59;;;;;;;1.85;0.65;;;;;;;;;;4981994;28;20043;-56
2022/04/09 04:23:26;;;;;;;1.58;0.50;;;;;;;;;;4980450;28;20142;-57
2022/04/09 04:25:53;;;;;;;3.08;0.60;;;;;;;;;;4982472;28;20070;-57
2022/04/09 04:28:19;;;;;;;1.88;0.52;;;;;;;;;;4981023;28;20034;-57
2022/04/09 04:30:46;;;;;;;5.05;0.77;;;;;;;;;;4980656;28;20070;-57
2022/04/09 04:33:13;;;;;;;4.05;0.70;;;;;;;;;;4982982;28;20921;-56
2022/04/09 04:35:40;;;;;;;1.92;0.50;;;;;;;;;;4982486;28;20101;-55
2022/04/09 04:38:06;;;;;;;2.60;0.80;;;;;;;;;;4983086;28;20045;-57
2022/04/09 04:40:33;;;;;;;2.22;0.70;;;;;;;;;;4982426;28;20034;-56
2022/04/09 04:43:00;;;;;;;1.95;0.60;;;;;;;;;;4981638;28;20101;-57
2022/04/09 04:45:26;;;;;;;1.88;0.50;;;;;;;;;;4981965;28;20045;-57
2022/04/09 04:47:53;;;;;;;3.35;0.75;;;;;;;;;;4983979;28;20186;-57
2022/04/09 04:50:20;;;;;;;4.72;0.80;;;;;;;;;;4983520;28;20046;-58
2022/04/09 04:52:47;;;;;;;2.65;0.68;;;;;;;;;;4979997;28;20049;-57
2022/04/09 04:55:14;;;;;;;2.30;0.60;;;;;;;;;;4981746;28;20045;-56
2022/04/09 04:57:45;;;;;;;3.03;0.90;;;;;;;;;;4991940;28;20129;-57
2022/04/09 05:00:12;;;;;;;3.38;0.82;;;;;;;;;;4983720;28;20043;-58
2022/04/09 05:02:39;;;;;;;4.97;0.93;;;;;;;;;;4981172;28;20122;-56
2022/04/09 05:05:06;;;;;;;4.05;0.80;;;;;;;;;;4983771;28;20042;-58
2022/04/09 05:07:42;;;;;;;2.70;0.80;;;;;;;;;;4983052;28;20058;-55
2022/04/09 05:10:15;;;;;;;2.65;0.70;;;;;;;;;;4997372;28;20053;-54
2022/04/09 05:12:41;;;;;;;;;;;;;;;;;;4985241;28;20046;-56
2022/04/09 05:15:09;;;;;;;2.90;0.80;;;;;;;;;;4986766;28;20628;-56
2022/04/09 05:17:36;;;;;;;4.53;0.90;;;;;;;;;;4987073;28;20046;-57
2022/04/09 05:20:04;;;;;;;2.40;0.75;;;;;;;;;;4984924;28;20053;-59
2022/04/09 05:22:31;;;;;;;3.55;0.65;;;;;;;;;;4985216;28;20042;-54
2022/04/09 05:24:58;;;;;;;2.17;0.60;;;;;;;;;;4986112;28;20054;-55
2022/04/09 05:27:26;;;;;;;6.40;0.80;;;;;;;;;;4984089;28;20133;-55
2022/04/09 05:29:52;;;;;;;2.55;0.60;;;;;;;;;;4981740;28;20042;-55
2022/04/09 05:32:19;;;;;;;2.85;0.70;;;;;;;;;;4983599;28;20169;-53
2022/04/09 05:34:46;;;;;;;2.50;0.65;;;;;;;;;;4985045;28;20042;-57
2022/04/09 05:37:13;;;;;;;2.15;0.63;;;;;;;;;;4983807;28;20076;-57
2022/04/09 05:39:39;;;;;;;4.15;0.80;;;;;;;;;;4983192;28;20058;-57
2022/04/09 05:42:06;;;;;;;3.33;0.85;;;;;;;;;;4984441;28;20045;-54
2022/04/09 05:44:33;;;;;;;2.60;0.70;;;;;;;;;;4984290;28;20117;-55
2022/04/09 05:47:00;;;;;;;2.50;0.70;;;;;;;;;;4983280;28;20122;-57
2022/04/09 05:49:27;;;;;;;3.58;0.88;;;;;;;;;;4983526;28;20097;-56
2022/04/09 05:51:54;;;;;;;1.45;0.50;;;;;;;;;;4986408;28;20047;-57
2022/04/09 05:54:21;;;;;;;1.92;0.60;;;;;;;;;;4985113;28;20153;-55
2022/04/09 05:56:47;;;;;;;5.80;0.90;;;;;;;;;;4985893;28;20660;-53
2022/04/09 05:59:14;;;;;;;4.65;0.70;;;;;;;;;;5000231;28;20050;-57
2022/04/09 06:01:41;;;;;;;5.30;0.90;;;;;;;;;;4984282;28;20050;-57
2022/04/09 06:04:08;;;;;;;3.10;0.90;;;;;;;;;;4984664;28;20668;-56
2022/04/09 06:06:37;;;;;;;6.53;0.90;;;;;;;;;;4986199;28;20191;-57
2022/04/09 06:09:04;;;;;;;5.05;0.77;;;;;;;;;;4985732;28;20502;-55
2022/04/09 06:11:31;;;;;;;1.67;0.57;;;;;;;;;;4982891;28;20054;-56
2022/04/09 06:13:58;;;;;;;4.43;0.80;;;;;;;;;;4985701;28;20057;-56
2022/04/09 06:16:25;;;;;;;5.32;0.90;;;;;;;;;;4984730;28;20062;-55
2022/04/09 06:18:52;;;;;;;1.80;0.60;;;;;;;;;;4983321;28;20049;-56
2022/04/09 06:21:18;;;;;;;8.60;1.00;;;;;;;;;;4983167;28;20044;-53
2022/04/09 06:23:45;;;;;;;2.80;0.68;;;;;;;;;;4987585;28;20145;-55
2022/04/09 06:26:12;;;;;;;3.33;0.93;;;;;;;;;;4985598;28;20046;-56
2022/04/09 06:28:38;;;;;;;2.50;0.73;;;;;;;;;;4983385;28;20047;-55
2022/04/09 06:31:05;;;;;;;5.22;0.90;;;;;;;;;;4982470;28;20060;-56
2022/04/09 06:33:32;;;;;;;2.80;0.75;;;;;;;;;;4983045;28;20034;-56
2022/04/09 06:35:58;;;;;;;2.95;0.90;;;;;;;;;;4985622;28;20050;-56
2022/04/09 06:38:27;;;;;;;2.42;0.82;;;;;;;;;;4984290;28;20399;-57
2022/04/09 06:40:54;;;;;;;2.05;0.60;;;;;;;;;;4983717;28;20507;-54
2022/04/09 06:43:20;;;;;;;2.20;0.70;;;;;;;;;;4984144;28;20038;-57
2022/04/09 06:45:47;;;;;;;2.60;0.60;;;;;;;;;;4983990;28;20100;-57
2022/04/09 06:48:14;;;;;;;2.40;0.63;;;;;;;;;;4985445;28;20403;-57
2022/04/09 06:50:40;;;;;;;1.92;0.60;;;;;;;;;;4982610;28;20873;-57
2022/04/09 06:53:07;;;;;;;2.00;0.60;;;;;;;;;;4985209;28;20030;-57
2022/04/09 06:55:34;;;;;;;4.60;0.70;;;;;;;;;;4983891;28;20066;-58
2022/04/09 06:58:01;;;;;;;4.40;0.93;;;;;;;;;;4983368;28;20031;-55
2022/04/09 07:00:28;;;;;;;5.95;1.08;;;;;;;;;;4983139;28;20046;-57
2022/04/09 07:02:55;;;;;;;5.05;1.08;;;;;;;;;;4983004;28;20056;-57
2022/04/09 07:05:22;;;;;;;9.30;1.30;;;;;;;;;;4982981;28;20108;-55
2022/04/09 07:07:49;;;;;;;5.15;0.80;;;;;;;;;;4982055;28;20092;-55
2022/04/09 07:10:16;;;;;;;4.47;0.82;;;;;;;;;;4983430;28;20038;-55
2022/04/09 07:12:46;;;;;;;7.38;0.88;;;;;;;;;;4983157;28;20046;-56
2022/04/09 07:15:13;;;;;;;10.95;1.40;;;;;;;;;;4993348;28;20039;-56
2022/04/09 07:17:42;;;;;;;5.43;0.90;;;;;;;;;;4982790;28;20038;-56
2022/04/09 07:20:09;;;;;;;7.90;0.80;;;;;;;;;;4983984;28;20403;-55
2022/04/09 07:22:37;;;;;;;4.97;0.90;;;;;;;;;;4984407;28;20042;-54
2022/04/09 07:25:05;;;;;;;4.05;1.05;;;;;;;;;;4982753;28;20050;-54
2022/04/09 07:27:42;;;;;;;2.67;0.82;;;;;;;;;;4998284;28;20535;-55
2022/04/09 07:30:10;;;;;;;5.65;0.80;;;;;;;;;;4984495;28;20054;-55
2022/04/09 07:32:37;;;;;;;8.60;1.02;;;;;;;;;;4980209;28;20053;-56
2022/04/09 07:35:04;;;;;;;9.43;1.15;;;;;;;;;;4983871;28;20045;-54
2022/04/09 07:37:31;;;;;;;3.97;1.13;;;;;;;;;;4983901;28;20042;-55
2022/04/09 07:39:58;;;;;;;4.65;0.77;;;;;;;;;;4982435;28;20057;-56
2022/04/09 07:42:25;;;;;;;8.30;0.93;;;;;;;;;;4983009;28;20045;-55
2022/04/09 07:44:52;;;;;;;5.45;1.27;;;;;;;;;;4982339;28;20051;-56
2022/04/09 07:47:21;;;;;;;5.13;1.13;;;;;;;;;;4982072;28;20172;-55
2022/04/09 07:49:49;;;;;;;2.60;0.80;;;;;;;;;;4982089;28;20039;-54
2022/04/09 07:52:15;;;;;;;6.93;1.02;;;;;;;;;;4982193;28;20049;-56
2022/04/09 07:54:42;;;;;;;4.45;0.82;;;;;;;;;;4981937;28;20037;-53
2022/04/09 07:57:09;;;;;;;2.72;0.77;;;;;;;;;;4983527;28;20132;-56
2022/04/09 07:59:35;;;;;;;6.40;1.05;;;;;;;;;;4981292;28;20494;-55
2022/04/09 08:02:02;;;;;;;5.18;1.30;;;;;;;;;;4982623;28;20491;-54
2022/04/09 08:04:29;;;;;;;5.43;1.17;;;;;;;;;;4983172;28;20049;-57
2022/04/09 08:06:55;;;;;;;3.22;1.08;;;;;;;;;;4982859;28;20042;-55
2022/04/09 08:09:22;;;;;;;3.30;0.90;;;;;;;;;;4981144;28;20049;-56
2022/04/09 08:11:49;;;;;;;3.28;0.90;;;;;;;;;;4982455;28;20846;-57
2022/04/09 08:14:16;;;;;;;9.13;0.93;;;;;;;;;;4983382;28;20038;-56
2022/04/09 08:16:42;;;;;;;2.35;0.80;;;;;;;;;;4982872;28;20038;-52
2022/04/09 08:19:09;;;;;;;2.17;0.65;;;;;;;;;;4984533;28;20497;-56
2022/04/09 08:21:36;;;;;;;7.22;0.90;;;;;;;;;;4982659;28;20042;-56
2022/04/09 08:24:02;;;;;;;2.90;0.70;;;;;;;;;;4982982;28;20053;-55
2022/04/09 08:26:29;;;;;;;4.70;0.75;;;;;;;;;;4981696;28;20077;-54
2022/04/09 08:28:56;;;;;;;3.88;0.70;;;;;;;;;;4981360;28;20093;-54
2022/04/09 08:31:23;;;;;;;1.95;0.60;;;;;;;;;;4981700;28;20057;-57
2022/04/09 08:33:50;;;;;;;1.45;0.50;;;;;;;;;;4982452;28;20038;-53
2022/04/09 08:36:17;;;;;;;3.47;0.70;;;;;;;;;;4982005;28;20491;-56
2022/04/09 08:38:44;;;;;;;4.60;0.80;;;;;;;;;;4982171;28;20042;-56
2022/04/09 08:41:10;;;;;;;7.50;0.80;;;;;;;;;;4980470;28;20043;-54
2022/04/09 08:43:38;;;;;;;3.20;0.73;;;;;;;;;;4981377;28;20042;-57
2022/04/09 08:46:05;;;;;;;5.07;0.80;;;;;;;;;;4982104;28;20188;-57
2022/04/09 08:48:32;;;;;;;6.32;0.80;;;;;;;;;;4981182;28;20065;-56
2022/04/09 08:51:00;;;;;;;1.88;0.70;;;;;;;;;;4981551;28;20050;-55
2022/04/09 08:53:27;;;;;;;4.30;0.60;;;;;;;;;;4983922;28;20034;-56
2022/04/09 08:55:53;;;;;;;3.35;0.60;;;;;;;;;;4981223;28;20033;-55
2022/04/09 08:58:20;;;;;;;2.13;0.60;;;;;;;;;;4981567;28;20053;-56
2022/04/09 09:00:47;;;;;;;2.03;0.50;;;;;;;;;;4982917;28;20038;-56
2022/04/09 09:03:15;;;;;;;1.35;0.47;;;;;;;;;;4982732;28;20045;-56
2022/04/09 09:05:43;;;;;;;3.00;0.60;;;;;;;;;;4981773;28;20542;-54
2022/04/09 09:08:10;;;;;;;2.28;0.60;;;;;;;;;;4981919;28;20359;-55
2022/04/09 09:10:38;;;;;;;1.75;0.50;;;;;;;;;;4980088;28;20117;-56
2022/04/09 09:13:05;;;;;;;1.90;0.43;;;;;;;;;;4981987;28;20054;-55
2022/04/09 09:15:45;;;;;;;1.83;0.60;;;;;;;;;;4981428;28;20047;-56
2022/04/09 09:18:18;;;;;;;2.78;0.60;;;;;;;;;;4982579;28;20053;-54
2022/04/09 09:20:51;;;;;;;1.45;0.50;;;;;;;;;;4981680;28;20046;-56
2022/04/09 09:23:18;;;;;;;;;;;;;;;;;;4999302;28;20073;-56
2022/04/09 09:25:55;;;;;;;2.33;0.50;;;;;;;;;;4983623;28;19932;-54
2022/04/09 09:28:25;;;;;;;1.95;0.57;;;;;;;;;;4981246;28;20507;-55
2022/04/09 09:30:53;;;;;;;2.45;0.60;;;;;;;;;;4981904;28;20447;-53
2022/04/09 09:33:20;;;;;;;2.75;0.65;;;;;;;;;;4982263;28;20058;-54
2022/04/09 09:35:49;;;;;;;1.92;0.52;;;;;;;;;;4981507;28;20042;-55
2022/04/09 09:38:22;;;;;;;4.22;0.90;;;;;;;;;;4982622;28;20043;-56
2022/04/09 09:40:49;;;;;;;2.00;0.80;;;;;;;;;;4981474;28;20639;-56
2022/04/09 09:43:19;;;;;;;1.95;0.70;;;;;;;;;;4983672;28;20043;-56
2022/04/09 09:45:47;;;;;;;2.25;0.60;;;;;;;;;;4982061;28;20039;-56
2022/04/09 09:48:20;;;;;;;2.05;0.70;;;;;;;;;;4982606;28;21225;-57
2022/04/09 09:50:47;;;;;;;1.45;0.50;;;;;;;;;;4980580;28;20064;-56
2022/04/09 09:53:14;;;;;;;3.08;0.60;;;;;;;;;;4982827;28;20042;-57
2022/04/09 09:55:44;;;;;;;1.85;0.57;;;;;;;;;;4984372;28;20518;-57
2022/04/09 09:58:15;;;;;;;2.28;0.60;;;;;;;;;;4986531;28;20051;-57
2022/04/09 10:00:41;;;;;;;1.65;0.50;;;;;;;;;;4984919;28;20399;-55
2022/04/09 10:03:09;;;;;;;3.05;0.70;;;;;;;;;;4984976;28;20566;-56
2022/04/09 10:05:38;;;;;;;2.03;0.60;;;;;;;;;;4983946;28;20495;-57
2022/04/09 10:08:06;;;;;;;1.73;0.60;;;;;;;;;;4985254;28;20704;-56
2022/04/09 10:10:37;;;;;;;1.83;0.60;;;;;;;;;;4982850;28;20053;-56
2022/04/09 10:13:07;;;;;;;2.58;0.60;;;;;;;;;;4985464;28;20129;-55
2022/04/09 10:15:34;;;;;;;2.40;0.50;;;;;;;;;;4985462;28;20038;-55
2022/04/09 10:18:01;;;;;;;2.20;0.60;;;;;;;;;;4985084;28;20137;-52
2022/04/09 10:20:29;;;;;;;1.77;0.50;;;;;;;;;;4980828;28;20035;-56
2022/04/09 10:22:58;;;;;;;2.75;0.50;;;;;;;;;;4984081;28;20626;-55
2022/04/09 10:25:29;;;;;;;2.20;0.57;;;;;;;;;;4981840;28;20065;-55
2022/04/09 10:28:03;;;;;;;2.28;0.60;;;;;;;;;;4983604;28;20042;-55
2022/04/09 10:30:39;;;;;;;2.40;0.70;;;;;;;;;;4982524;28;20058;-56
2022/04/09 10:33:21;;;;;;;2.47;0.50;;;;;;;;;;4983943;28;20046;-55
2022/04/09 10:35:48;;;;;;;3.10;0.50;;;;;;;;;;4984760;28;20066;-55
2022/04/09 10:38:16;;;;;;;1.65;0.45;;;;;;;;;;4985101;28;20073;-56
2022/04/09 10:40:55;;;;;;;1.52;0.60;;;;;;;;;;4983432;28;20046;-56
2022/04/09 10:43:22;;;;;;;8.27;0.60;;;;;;;;;;4984356;28;20038;-53
2022/04/09 10:46:05;;;;;;;1.05;0.40;;;;;;;;;;4984504;28;20038;-56
2022/04/09 10:48:32;;;;;;;0.88;0.43;;;;;;;;;;4984573;28;20715;-56
2022/04/09 10:51:04;;;;;;;1.63;0.40;;;;;;;;;;4982939;28;20045;-55
2022/04/09 10:53:32;;;;;;;2.53;0.47;;;;;;;;;;4983436;28;20065;-55
2022/04/09 10:56:20;;;;;;;1.23;0.40;;;;;;;;;;4983641;28;20050;-55
2022/04/09 10:59:05;;;;;;;1.05;0.40;;;;;;;;;;4984237;28;20132;-53
2022/04/09 11:01:48;;;;;;;1.58;0.40;;;;;;;;;;4983401;28;20045;-55
2022/04/09 11:04:35;;;;;;;1.58;0.43;;;;;;;;;;4983886;28;20045;-57
2022/04/09 11:07:03;;;;;;;1.42;0.50;;;;;;;;;;4983771;28;20105;-56
2022/04/09 11:09:48;;;;;;;1.17;0.40;;;;;;;;;;4983921;28;20039;-58
2022/04/09 11:12:16;;;;;;;2.35;0.70;;;;;;;;;;4984533;28;20519;-57
2022/04/09 11:14:47;;;;;;;3.25;0.90;;;;;;;;;;4983224;28;20913;-56
2022/04/09 11:17:24;;;;;;;1.83;0.70;;;;;;;;;;4984501;28;21068;-55
2022/04/09 11:19:52;;;;;;;1.98;0.55;;;;;;;;;;4979266;28;20550;-57
2022/04/09 11:22:19;;;;;;;1.98;0.52;;;;;;;;;;4972083;28;20035;-55
2022/04/09 11:24:46;;;;;;;2.03;0.65;;;;;;;;;;4962069;28;20043;-55
2022/04/09 11:27:13;;;;;;;4.10;0.60;;;;;;;;;;4965547;28;20114;-55
2022/04/09 11:29:41;;;;;;;1.92;0.63;;;;;;;;;;4971967;28;20074;-55
2022/04/09 11:32:17;;;;;;;0.98;0.40;;;;;;;;;;4980126;28;20578;-55
2022/04/09 11:34:50;;;;;;;1.48;0.50;;;;;;;;;;4968924;28;20039;-56
2022/04/09 11:37:17;;;;;;;1.02;0.47;;;;;;;;;;4970491;28;20103;-53
2022/04/09 11:39:45;;;;;;;2.40;0.60;;;;;;;;;;4971267;28;20046;-55
2022/04/09 11:42:12;;;;;;;1.60;0.50;;;;;;;;;;4979480;28;20113;-56
2022/04/09 11:44:39;;;;;;;1.73;0.50;;;;;;;;;;4980048;28;20038;-56
2022/04/09 11:47:09;;;;;;;1.77;0.50;;;;;;;;;;4971460;28;20093;-56
2022/04/09 11:49:35;;;;;;;3.50;0.60;;;;;;;;;;4965317;28;20034;-56
2022/04/09 11:52:02;;;;;;;2.00;0.60;;;;;;;;;;4972318;28;20050;-55
2022/04/09 11:54:32;;;;;;;2.75;0.80;;;;;;;;;;4962791;28;20494;-56
2022/04/09 11:57:00;;;;;;;3.13;0.80;;;;;;;;;;4964208;28;20118;-53
2022/04/09 11:59:28;;;;;;;3.55;0.93;;;;;;;;;;4963211;28;20141;-54
2022/04/09 12:01:55;;;;;;;2.58;0.63;;;;;;;;;;4962277;28;20045;-54
2022/04/09 12:04:23;;;;;;;1.63;0.60;;;;;;;;;;4961679;28;20085;-56
2022/04/09 12:06:50;;;;;;;3.35;0.60;;;;;;;;;;4964354;28;20042;-55
2022/04/09 12:09:17;;;;;;;3.17;0.60;;;;;;;;;;4972522;28;20134;-55
2022/04/09 12:11:51;;;;;;;4.38;0.85;;;;;;;;;;4962499;28;20077;-55
2022/04/09 12:14:20;;;;;;;2.13;0.70;;;;;;;;;;4973378;28;20081;-55
2022/04/09 12:16:47;;;;;;;3.53;0.80;;;;;;;;;;4971161;28;20042;-55
2022/04/09 12:19:14;;;;;;;3.03;0.70;;;;;;;;;;4979599;28;20054;-54
2022/04/09 12:21:41;;;;;;;2.80;0.60;;;;;;;;;;4970834;28;20068;-56
2022/04/09 12:24:09;;;;;;;2.20;0.60;;;;;;;;;;4964285;28;20731;-56
2022/04/09 12:26:40;;;;;;;1.70;0.50;;;;;;;;;;4962061;28;20122;-56
2022/04/09 12:29:23;;;;;;;1.45;0.50;;;;;;;;;;4970225;28;20045;-55
2022/04/09 12:31:51;;;;;;;0.95;0.40;;;;;;;;;;4969675;28;20561;-55
2022/04/09 12:34:21;;;;;;;2.03;0.50;;;;;;;;;;4964915;28;20049;-56
2022/04/09 12:37:05;;;;;;;2.83;0.57;;;;;;;;;;4971933;28;20042;-56
2022/04/09 12:39:33;;;;;;;1.30;0.50;;;;;;;;;;4972080;28;20077;-53
2022/04/09 12:42:00;;;;;;;4.88;0.50;;;;;;;;;;4976933;28;20053;-52
2022/04/09 12:44:27;;;;;;;1.23;0.50;;;;;;;;;;4964496;28;20133;-56
2022/04/09 12:46:54;;;;;;;2.45;0.50;;;;;;;;;;4963232;28;20100;-55
2022/04/09 12:49:31;;;;;;;1.77;0.50;;;;;;;;;;4977482;28;20046;-53
2022/04/09 12:51:58;;;;;;;1.77;0.60;;;;;;;;;;4963559;28;20080;-54
2022/04/09 12:54:25;;;;;;;1.63;0.55;;;;;;;;;;4973687;28;20044;-56
2022/04/09 12:56:52;;;;;;;4.03;0.65;;;;;;;;;;4963145;28;20101;-54
2022/04/09 12:59:19;;;;;;;8.75;0.82;;;;;;;;;;4964000;28;20595;-56
2022/04/09 13:01:46;;;;;;;2.85;0.60;;;;;;;;;;4963188;28;20043;-56
2022/04/09 13:04:13;;;;;;;2.90;0.68;;;;;;;;;;4964823;28;20111;-54
2022/04/09 13:06:40;;;;;;;5.85;0.80;;;;;;;;;;4972187;28;20702;-55
2022/04/09 13:09:10;;;;;;;9.18;0.70;;;;;;;;;;4980052;28;20105;-55
2022/04/09 13:11:37;;;;;;;2.03;0.50;;;;;;;;;;4964161;28;20057;-57
2022/04/09 13:14:04;;;;;;;2.25;0.57;;;;;;;;;;4978333;28;20133;-54
2022/04/09 13:16:31;;;;;;;3.55;0.68;;;;;;;;;;4966511;28;20551;-56
2022/04/09 13:18:58;;;;;;;5.43;0.73;;;;;;;;;;4963475;28;20877;-55
2022/04/09 13:21:25;;;;;;;1.38;0.50;;;;;;;;;;4963377;28;20402;-56
2022/04/09 13:23:52;;;;;;;0.95;0.45;;;;;;;;;;4978982;28;20039;-53
2022/04/09 13:26:19;;;;;;;3.58;0.57;;;;;;;;;;4963708;28;20046;-56
2022/04/09 13:28:45;;;;;;;6.22;0.73;;;;;;;;;;4982760;28;20522;-56
2022/04/09 13:31:12;;;;;;;0.93;0.38;;;;;;;;;;4972455;28;20511;-54
2022/04/09 13:33:39;;;;;;;8.00;0.88;;;;;;;;;;4984548;28;20042;-53
2022/04/09 13:36:06;;;;;;;2.70;0.50;;;;;;;;;;4979541;28;20043;-56
2022/04/09 13:38:32;;;;;;;0.93;0.30;;;;;;;;;;4976154;28;20080;-57
2022/04/09 13:40:59;;;;;;;1.52;0.43;;;;;;;;;;4967686;28;20526;-56
2022/04/09 13:43:26;;;;;;;0.88;0.40;;;;;;;;;;4974968;28;20042;-55
2022/04/09 13:45:53;;;;;;;1.55;0.45;;;;;;;;;;4972741;28;20088;-55
2022/04/09 13:48:19;;;;;;;2.53;0.60;;;;;;;;;;4968377;28;20039;-56
2022/04/09 13:50:46;;;;;;;2.28;0.45;;;;;;;;;;4964001;28;20069;-55
2022/04/09 13:53:15;;;;;;;5.38;0.60;;;;;;;;;;4978098;28;20174;-54
2022/04/09 13:55:43;;;;;;;4.75;0.63;;;;;;;;;;4965472;28;20069;-52
2022/04/09 13:58:10;;;;;;;3.05;0.50;;;;;;;;;;4967097;28;20038;-55
2022/04/09 14:00:37;;;;;;;1.38;0.40;;;;;;;;;;4964812;28;20039;-52
2022/04/09 14:03:04;;;;;;;1.92;0.55;;;;;;;;;;4981813;28;20133;-55
2022/04/09 14:05:30;;;;;;;2.70;1.10;;;;;;;;;;4964996;28;20593;-55
2022/04/09 14:07:57;;;;;;;1.02;0.47;;;;;;;;;;4965240;28;20049;-55
2022/04/09 14:10:24;;;;;;;1.92;0.60;;;;;;;;;;4960985;28;20045;-53
2022/04/09 14:12:50;;;;;;;3.15;0.50;;;;;;;;;;4964097;28;20126;-52
2022/04/09 14:15:17;;;;;;;2.47;0.70;;;;;;;;;;4976777;28;20466;-55
2022/04/09 14:17:44;;;;;;;3.13;0.80;;;;;;;;;;4964772;28;20049;-55
2022/04/09 14:20:11;;;;;;;2.05;0.50;;;;;;;;;;4966557;28;20039;-55
2022/04/09 14:22:37;;;;;;;1.17;0.47;;;;;;;;;;4973269;28;20034;-55
2022/04/09 14:25:04;;;;;;;1.70;0.60;;;;;;;;;;4980967;28;20053;-55
2022/04/09 14:27:31;;;;;;;2.60;0.60;;;;;;;;;;4969676;28;20044;-52
2022/04/09 14:29:58;;;;;;;0.43;0.30;;;;;;;;;;4978298;28;20138;-54
2022/04/09 14:32:24;;;;;;;1.90;0.60;;;;;;;;;;4966933;28;20051;-54
2022/04/09 14:34:51;;;;;;;1.85;0.57;;;;;;;;;;4973594;28;20065;-53
2022/04/09 14:37:18;;;;;;;2.00;0.50;;;;;;;;;;4976918;28;20053;-55
2022/04/09 14:39:44;;;;;;;1.85;0.50;;;;;;;;;;4964588;28;20043;-55
2022/04/09 14:42:11;;;;;;;0.88;0.35;;;;;;;;;;4967929;28;20042;-55
2022/04/09 14:44:38;;;;;;;1.50;0.50;;;;;;;;;;4981607;28;20527;-55
2022/04/09 14:47:06;;;;;;;1.52;0.45;;;;;;;;;;4964998;28;20047;-56